createdAt,value
2022-08-05T00:00:52.164Z,2.28
2022-08-05T00:03:55.089Z,2.28
2022-08-05T00:07:00.146Z,2.40
2022-08-05T00:10:27.091Z,2.37
2022-08-05T00:13:39.648Z,2.30
2022-08-05T00:16:52.497Z,2.10
2022-08-05T00:20:02.838Z,2.03
2022-08-05T00:23:12.460Z,2.25
2022-08-05T00:26:16.489Z,2.42
2022-08-05T00:29:25.711Z,1.90
2022-08-05T00:32:28.574Z,2.08
2022-08-05T00:35:33.209Z,2.20
2022-08-05T00:38:36.216Z,2.15
2022-08-05T00:41:52.217Z,2.25
2022-08-05T00:44:58.409Z,2.00
2022-08-05T00:48:05.804Z,2.20
2022-08-05T00:51:09.032Z,2.20
2022-08-05T00:54:31.594Z,2.00
2022-08-05T00:57:55.550Z,2.00
2022-08-05T01:00:57.181Z,2.10
2022-08-05T01:04:01.239Z,2.30
2022-08-05T01:07:05.244Z,2.35
2022-08-05T01:10:10.547Z,2.28
2022-08-05T01:13:57.332Z,2.12
2022-08-05T01:17:05.367Z,1.90
2022-08-05T01:20:27.058Z,2.20
2022-08-05T01:23:36.432Z,2.00
2022-08-05T01:27:00.123Z,1.92
2022-08-05T01:30:19.067Z,2.20
2022-08-05T01:33:53.503Z,1.83
2022-08-05T01:37:01.619Z,2.12
2022-08-05T01:40:06.817Z,2.15
2022-08-05T01:43:10.220Z,2.20
2022-08-05T01:46:41.925Z,2.03
2022-08-05T01:50:02.296Z,2.00
2022-08-05T01:53:13.953Z,2.05
2022-08-05T01:58:10.035Z,2.25
2022-08-05T01:59:41.255Z,2.10
2022-08-05T02:02:56.366Z,1.92
2022-08-05T02:06:33.328Z,1.97
2022-08-05T02:09:28.271Z,2.00
2022-08-05T02:12:44.899Z,1.95
2022-08-05T02:16:16.441Z,2.28
2022-08-05T02:19:47.440Z,2.10
2022-08-05T02:22:59.854Z,2.20
2022-08-05T02:26:05.757Z,2.10
2022-08-05T02:29:21.706Z,1.92
2022-08-05T02:32:31.658Z,2.03
2022-08-05T02:35:37.604Z,1.87
2022-08-05T02:38:42.956Z,2.00
2022-08-05T02:42:00.790Z,1.90
2022-08-05T02:45:04.885Z,2.15
2022-08-05T02:48:12.445Z,2.05
2022-08-05T02:51:16.273Z,2.33
2022-08-05T02:54:35.651Z,2.00
2022-08-05T02:58:11.881Z,2.10
2022-08-05T03:01:03.390Z,1.87
2022-08-05T03:04:13.991Z,1.90
2022-08-05T03:07:40.391Z,1.60
2022-08-05T03:11:01.116Z,1.70
2022-08-05T03:14:08.064Z,1.70
2022-08-05T03:17:11.100Z,1.80
2022-08-05T03:20:13.978Z,1.80
2022-08-05T03:23:18.129Z,1.52
2022-08-05T03:26:30.873Z,1.80
2022-08-05T03:29:44.818Z,1.80
2022-08-05T03:33:07.280Z,1.77
2022-08-05T03:36:12.115Z,1.73
2022-08-05T03:39:20.173Z,2.08
2022-08-05T03:42:32.376Z,1.70
2022-08-05T03:45:55.208Z,1.60
2022-08-05T03:48:59.641Z,1.42
2022-08-05T03:52:39.332Z,1.83
2022-08-05T03:56:05.915Z,1.62
2022-08-05T03:59:00.634Z,1.70
2022-08-05T04:02:04.801Z,1.62
2022-08-05T04:05:10.387Z,1.60
2022-08-05T04:08:14.609Z,1.48
2022-08-05T04:11:50.853Z,1.90
2022-08-05T04:14:57.628Z,1.50
2022-08-05T04:18:06.811Z,1.77
2022-08-05T04:21:11.129Z,1.35
2022-08-05T04:24:19.088Z,1.60
2022-08-05T04:27:41.882Z,1.62
2022-08-05T04:30:48.042Z,2.03
2022-08-05T04:34:18.576Z,2.00
2022-08-05T04:37:13.694Z,1.52
2022-08-05T04:40:17.056Z,1.83
2022-08-05T04:43:22.434Z,1.70
2022-08-05T04:46:28.149Z,1.70
2022-08-05T04:50:01.119Z,1.52
2022-08-05T04:52:54.181Z,1.50
2022-08-05T04:56:14.745Z,1.40
2022-08-05T04:59:22.995Z,1.50
2022-08-05T05:02:43.304Z,1.40
2022-08-05T05:06:39.187Z,1.40
2022-08-05T05:09:14.027Z,1.50
2022-08-05T05:12:19.906Z,1.70
2022-08-05T05:15:57.004Z,1.50
2022-08-05T05:19:16.375Z,1.60
2022-08-05T05:22:24.452Z,1.58
2022-08-05T05:25:32.564Z,1.40
2022-08-05T05:28:44.971Z,1.37
2022-08-05T05:31:48.002Z,1.58
2022-08-05T05:34:52.452Z,1.70
2022-08-05T05:37:59.464Z,1.60
2022-08-05T05:41:04.573Z,1.52
2022-08-05T05:44:35.794Z,1.77
2022-08-05T05:48:06.224Z,1.40
2022-08-05T05:50:57.873Z,1.73
2022-08-05T05:54:00.925Z,1.40
2022-08-05T05:57:03.701Z,1.80
2022-08-05T06:00:19.118Z,1.52
2022-08-05T06:03:40.197Z,1.60
2022-08-05T06:06:47.260Z,1.60
2022-08-05T06:10:04.349Z,1.40
2022-08-05T06:13:09.689Z,1.58
2022-08-05T06:16:31.754Z,1.70
2022-08-05T06:19:35.777Z,1.62
2022-08-05T06:22:40.562Z,1.80
2022-08-05T06:26:13.079Z,1.50
2022-08-05T06:29:25.041Z,1.52
2022-08-05T06:32:31.058Z,1.42
2022-08-05T06:36:03.715Z,1.80
2022-08-05T06:38:56.689Z,1.70
2022-08-05T06:42:04.000Z,1.67
2022-08-05T06:45:09.177Z,1.40
2022-08-05T06:48:50.373Z,1.55
2022-08-05T06:51:34.988Z,1.60
2022-08-05T06:54:38.876Z,1.60
2022-08-05T06:58:02.881Z,1.73
2022-08-05T07:01:06.457Z,1.67
2022-08-05T07:04:09.485Z,1.58
2022-08-05T07:07:12.818Z,1.55
2022-08-05T07:10:18.044Z,1.50
2022-08-05T07:13:58.792Z,1.60
2022-08-05T07:17:58.596Z,1.80
2022-08-05T07:20:37.215Z,1.60
2022-08-05T07:23:49.879Z,1.65
2022-08-05T07:26:53.497Z,1.90
2022-08-05T07:30:27.726Z,1.58
2022-08-05T07:33:36.477Z,1.67
2022-08-05T07:36:40.160Z,1.70
2022-08-05T07:40:26.359Z,1.70
2022-08-05T07:43:20.401Z,1.73
2022-08-05T07:46:28.411Z,1.80
2022-08-05T07:49:31.758Z,2.00
2022-08-05T07:52:44.255Z,1.50
2022-08-05T07:56:05.464Z,1.90
2022-08-05T07:59:09.964Z,1.70
2022-08-05T08:02:15.711Z,1.73
2022-08-05T08:05:20.582Z,1.90
2022-08-05T08:08:23.205Z,1.90
2022-08-05T08:11:47.061Z,2.10
2022-08-05T08:14:50.880Z,1.80
2022-08-05T08:17:54.805Z,1.80
2022-08-05T08:21:02.288Z,2.03
2022-08-05T08:24:13.552Z,1.90
2022-08-05T08:27:16.758Z,2.00
2022-08-05T08:30:33.919Z,1.90
2022-08-05T08:33:40.663Z,1.90
2022-08-05T08:36:49.121Z,2.00
2022-08-05T08:39:57.508Z,2.00
2022-08-05T08:45:17.109Z,2.03
2022-08-05T08:46:24.462Z,2.00
2022-08-05T08:50:06.197Z,2.00
2022-08-05T08:52:55.888Z,1.80
2022-08-05T08:56:04.015Z,1.90
2022-08-05T08:59:14.929Z,2.22
2022-08-05T09:02:24.340Z,2.00
2022-08-05T09:05:38.586Z,2.17
2022-08-05T09:08:52.455Z,2.50
2022-08-05T09:11:59.333Z,2.22
2022-08-05T09:15:09.562Z,2.30
2022-08-05T09:18:13.440Z,2.30
2022-08-05T09:21:20.688Z,2.30
2022-08-05T09:24:39.051Z,2.55
2022-08-05T09:28:05.252Z,2.30
2022-08-05T09:32:35.962Z,2.40
2022-08-05T09:34:48.443Z,2.17
2022-08-05T09:38:12.072Z,2.20
2022-08-05T09:41:16.455Z,2.25
2022-08-05T09:44:42.533Z,2.00
2022-08-05T09:47:55.171Z,2.40
2022-08-05T09:51:03.438Z,2.20
2022-08-05T09:54:21.417Z,2.58
2022-08-05T09:57:35.190Z,2.42
2022-08-05T10:00:38.632Z,2.50
2022-08-05T10:03:58.749Z,2.28
2022-08-05T10:07:19.481Z,2.57
2022-08-05T10:10:32.672Z,2.50
2022-08-05T10:13:45.536Z,2.53
2022-08-05T10:16:53.123Z,2.65
2022-08-05T10:20:04.020Z,2.65
2022-08-05T10:23:34.091Z,2.77
2022-08-05T10:26:51.654Z,2.70
2022-08-05T10:31:19.913Z,2.78
2022-08-05T10:33:37.099Z,2.72
2022-08-05T10:36:42.949Z,2.70
2022-08-05T10:39:59.442Z,2.60
2022-08-05T10:43:35.570Z,2.67
2022-08-05T10:46:50.709Z,2.67
2022-08-05T10:50:32.276Z,2.70
2022-08-05T10:53:39.426Z,2.90
2022-08-05T10:56:53.483Z,2.40
2022-08-05T11:00:19.071Z,3.00
2022-08-05T11:03:26.266Z,2.70
2022-08-05T11:06:31.048Z,2.80
2022-08-05T11:09:47.251Z,3.12
2022-08-05T11:12:50.852Z,2.60
2022-08-05T11:16:47.427Z,2.97
2022-08-05T11:20:10.007Z,2.70
2022-08-05T11:23:33.273Z,2.60
2022-08-05T11:26:36.482Z,2.85
2022-08-05T11:29:41.019Z,2.80
2022-08-05T11:32:43.701Z,2.50
2022-08-05T11:36:08.238Z,3.10
2022-08-05T11:39:14.372Z,2.75
2022-08-05T11:42:23.567Z,3.20
2022-08-05T11:46:29.865Z,3.37
2022-08-05T11:48:54.333Z,2.80
2022-08-05T11:51:57.617Z,2.90
2022-08-05T11:55:07.283Z,2.67
2022-08-05T11:58:12.050Z,3.20
2022-08-05T12:01:21.050Z,2.83
2022-08-05T12:04:26.143Z,3.17
2022-08-05T12:08:03.300Z,2.65
2022-08-05T12:10:59.428Z,2.90
2022-08-05T12:14:08.590Z,2.97
2022-08-05T12:18:03.311Z,2.47
2022-08-05T12:20:38.824Z,2.87
2022-08-05T12:23:52.783Z,3.10
2022-08-05T12:26:56.513Z,2.90
2022-08-05T12:30:15.450Z,3.03
2022-08-05T12:33:27.579Z,2.70
2022-08-05T12:36:31.141Z,2.92
2022-08-05T12:39:37.235Z,2.60
2022-08-05T12:42:41.544Z,2.80
2022-08-05T12:45:54.792Z,3.00
2022-08-05T12:49:00.692Z,3.20
2022-08-05T12:52:12.472Z,3.30
2022-08-05T12:55:26.325Z,3.10
2022-08-05T12:58:50.396Z,2.85
2022-08-05T13:02:07.087Z,2.87
2022-08-05T13:05:11.155Z,3.10
2022-08-05T13:08:18.591Z,2.53
2022-08-05T13:11:35.071Z,3.08
2022-08-05T13:14:47.943Z,3.08
2022-08-05T13:18:08.554Z,3.28
2022-08-05T13:21:11.404Z,2.93
2022-08-05T13:24:36.513Z,2.50
2022-08-05T13:27:46.709Z,2.40
2022-08-05T13:30:53.181Z,2.78
2022-08-05T13:34:21.145Z,2.80
2022-08-05T13:37:34.664Z,2.90
2022-08-05T13:40:49.955Z,2.85
2022-08-05T13:43:55.453Z,3.00
2022-08-05T13:47:01.827Z,2.80
2022-08-05T13:50:11.202Z,3.15
2022-08-05T13:53:16.026Z,2.63
2022-08-05T13:56:19.203Z,2.87
2022-08-05T13:59:25.000Z,3.17
2022-08-05T14:02:29.787Z,2.90
2022-08-05T14:06:24.565Z,2.97
2022-08-05T14:08:57.005Z,2.37
2022-08-05T14:12:17.299Z,2.60
2022-08-05T14:16:07.885Z,2.70
2022-08-05T14:18:43.827Z,2.50
2022-08-05T14:22:10.446Z,3.00
2022-08-05T14:25:19.204Z,2.80
2022-08-05T14:28:26.323Z,2.87
2022-08-05T14:32:03.972Z,2.75
2022-08-05T14:34:56.847Z,2.83
2022-08-05T14:38:01.202Z,2.58
2022-08-05T14:41:07.464Z,2.57
2022-08-05T14:44:20.541Z,3.30
2022-08-05T14:47:58.396Z,2.95
2022-08-05T14:50:46.365Z,2.92
2022-08-05T14:54:26.791Z,3.10
2022-08-05T14:57:14.334Z,2.63
2022-08-05T15:00:20.034Z,2.90
2022-08-05T15:03:23.050Z,2.70
2022-08-05T15:06:27.988Z,3.47
2022-08-05T15:09:51.919Z,2.70
2022-08-05T15:13:03.640Z,2.60
2022-08-05T15:16:06.807Z,2.85
2022-08-05T15:19:23.305Z,2.92
2022-08-05T15:22:28.406Z,2.33
2022-08-05T15:25:41.363Z,2.83
2022-08-05T15:28:54.091Z,3.10
2022-08-05T15:31:56.624Z,2.90
2022-08-05T15:34:59.553Z,2.70
2022-08-05T15:38:34.854Z,2.47
2022-08-05T15:41:55.837Z,3.05
2022-08-05T15:44:58.290Z,2.40
2022-08-05T15:48:02.473Z,2.53
2022-08-05T15:51:05.872Z,3.12
2022-08-05T15:54:09.054Z,2.65
2022-08-05T15:57:17.707Z,2.42
2022-08-05T16:00:30.548Z,2.90
2022-08-05T16:03:35.668Z,2.40
2022-08-05T16:06:43.559Z,2.78
2022-08-05T16:09:46.841Z,2.72
2022-08-05T16:12:49.641Z,2.50
2022-08-05T16:15:52.593Z,2.70
2022-08-05T16:18:55.355Z,2.58
2022-08-05T16:22:03.450Z,2.60
2022-08-05T16:25:09.905Z,2.37
2022-08-05T16:28:14.155Z,2.70
2022-08-05T16:31:18.341Z,2.60
2022-08-05T16:34:23.178Z,2.40
2022-08-05T16:38:16.394Z,2.62
2022-08-05T16:40:55.358Z,2.30
2022-08-05T16:44:02.858Z,2.90
2022-08-05T16:47:07.013Z,2.63
2022-08-05T16:50:30.107Z,2.50
2022-08-05T16:54:05.649Z,2.30
2022-08-05T16:56:56.956Z,2.37
2022-08-05T17:00:08.290Z,2.37
2022-08-05T17:03:15.248Z,2.20
2022-08-05T17:06:24.527Z,2.53
2022-08-05T17:09:30.538Z,2.50
2022-08-05T17:12:51.514Z,2.67
2022-08-05T17:16:02.742Z,2.45
2022-08-05T17:19:17.917Z,2.60
2022-08-05T17:22:25.644Z,2.62
2022-08-05T17:25:39.661Z,2.30
2022-08-05T17:28:42.841Z,2.30
2022-08-05T17:31:58.191Z,2.30
2022-08-05T17:35:02.090Z,2.30
2022-08-05T17:38:08.309Z,2.33
2022-08-05T17:41:22.797Z,2.80
2022-08-05T17:44:33.789Z,2.50
2022-08-05T17:47:38.345Z,2.37
2022-08-05T17:50:42.088Z,2.57
2022-08-05T17:53:45.922Z,2.30
2022-08-05T17:56:57.441Z,2.78
2022-08-05T18:00:04.885Z,2.50
2022-08-05T18:03:08.950Z,2.50
2022-08-05T18:06:15.203Z,2.67
2022-08-05T18:09:18.553Z,2.20
2022-08-05T18:12:23.755Z,2.40
2022-08-05T18:15:27.660Z,2.37
2022-08-05T18:18:34.029Z,2.15
2022-08-05T18:22:09.323Z,2.27
2022-08-05T18:25:06.718Z,2.30
2022-08-05T18:28:09.882Z,2.42
2022-08-05T18:31:12.714Z,2.10
2022-08-05T18:34:21.729Z,2.28
2022-08-05T18:37:34.416Z,2.50
2022-08-05T18:41:58.004Z,2.22
2022-08-05T18:44:07.975Z,2.37
2022-08-05T18:47:12.285Z,2.75
2022-08-05T18:50:45.287Z,2.40
2022-08-05T18:53:50.827Z,2.40
2022-08-05T18:56:53.385Z,2.50
2022-08-05T19:00:02.406Z,2.42
2022-08-05T19:03:06.137Z,2.40
2022-08-05T19:06:19.119Z,2.67
2022-08-05T19:09:25.432Z,2.50
2022-08-05T19:12:29.789Z,2.45
2022-08-05T19:15:58.976Z,2.40
2022-08-05T19:18:57.144Z,2.30
2022-08-05T19:21:59.838Z,2.37
2022-08-05T19:25:04.172Z,2.27
2022-08-05T19:28:06.824Z,2.28
2022-08-05T19:31:13.474Z,2.37
2022-08-05T19:34:20.445Z,2.45
2022-08-05T19:37:34.847Z,2.40
2022-08-05T19:40:48.689Z,2.53
2022-08-05T19:44:06.955Z,2.28
2022-08-05T19:47:16.624Z,2.12
2022-08-05T19:50:20.145Z,2.20
2022-08-05T19:54:03.411Z,2.20
2022-08-05T19:56:45.673Z,2.10
2022-08-05T19:59:59.549Z,2.00
2022-08-05T20:03:14.014Z,2.80
2022-08-05T20:06:28.622Z,2.15
2022-08-05T20:09:54.909Z,1.98
2022-08-05T20:12:55.304Z,2.27
2022-08-05T20:15:59.624Z,2.22
2022-08-05T20:19:03.460Z,2.67
2022-08-05T20:22:05.989Z,2.60
2022-08-05T20:25:12.525Z,2.50
2022-08-05T20:28:15.062Z,2.53
2022-08-05T20:31:21.688Z,2.50
2022-08-05T20:34:25.672Z,2.40
2022-08-05T20:38:06.115Z,2.60
2022-08-05T20:40:51.319Z,2.50
2022-08-05T20:43:59.928Z,2.40
2022-08-05T20:47:06.728Z,2.70
2022-08-05T20:50:11.959Z,2.58
2022-08-05T20:53:36.800Z,2.50
2022-08-05T20:56:41.911Z,2.80
2022-08-05T21:00:10.336Z,2.40
2022-08-05T21:03:08.394Z,2.75
2022-08-05T21:06:28.305Z,2.60
2022-08-05T21:09:33.781Z,2.58
2022-08-05T21:12:39.704Z,2.60
2022-08-05T21:16:01.314Z,2.30
2022-08-05T21:19:04.365Z,2.50
2022-08-05T21:22:07.353Z,2.70
2022-08-05T21:25:12.448Z,2.30
2022-08-05T21:28:18.458Z,2.42
2022-08-05T21:31:26.057Z,2.63
2022-08-05T21:34:43.976Z,2.60
2022-08-05T21:37:58.684Z,2.35
2022-08-05T21:41:01.662Z,2.42
2022-08-05T21:44:07.036Z,2.70
2022-08-05T21:47:17.308Z,2.40
2022-08-05T21:50:33.339Z,2.60
2022-08-05T21:53:37.501Z,2.28
2022-08-05T21:56:44.476Z,2.55
2022-08-05T22:00:03.993Z,2.50
2022-08-05T22:03:15.369Z,2.40
2022-08-05T22:06:22.183Z,2.60
2022-08-05T22:09:25.476Z,2.22
2022-08-05T22:12:50.530Z,2.58
2022-08-05T22:16:04.632Z,2.53
2022-08-05T22:19:15.126Z,2.70
2022-08-05T22:22:53.650Z,2.45
2022-08-05T22:26:16.956Z,2.97
2022-08-05T22:29:26.191Z,2.60
2022-08-05T22:32:30.003Z,2.60
2022-08-05T22:35:48.616Z,2.50
2022-08-05T22:38:53.735Z,2.53
2022-08-05T22:42:11.141Z,2.47
2022-08-05T22:45:16.449Z,2.75
2022-08-05T22:48:22.169Z,2.75
2022-08-05T22:52:03.127Z,2.40
2022-08-05T22:54:52.677Z,2.62
2022-08-05T22:57:56.511Z,3.15
2022-08-05T23:01:00.794Z,2.80
2022-08-05T23:04:04.059Z,2.65
2022-08-05T23:07:08.221Z,2.83
2022-08-05T23:10:11.816Z,2.72
2022-08-05T23:13:14.416Z,2.72
2022-08-05T23:16:26.070Z,2.62
2022-08-05T23:19:38.388Z,2.90
2022-08-05T23:22:47.855Z,2.63
2022-08-05T23:25:55.130Z,2.60
2022-08-05T23:28:58.442Z,2.72
2022-08-05T23:32:01.261Z,2.80
2022-08-05T23:35:05.465Z,2.78
2022-08-05T23:38:08.333Z,2.53
2022-08-05T23:41:15.093Z,2.80
2022-08-05T23:44:19.785Z,2.60
2022-08-05T23:47:27.892Z,3.10
2022-08-05T23:50:36.201Z,2.58
2022-08-05T23:53:46.725Z,2.87
2022-08-05T23:56:49.829Z,2.92
